Delray Beach, FL (33444)

2:46 PM EST on February 14, 2016 (GMT -0500)
Lake Ida - Garden House | | Change Station
CLOSE
Current Station
Personal Weather Station
Location: Delray Beach, FL
Elevation: 0 ft
Nearby Weather Stations

Elev 0 ft 26.48 °N, 80.07 °W | Updated 2 minutes ago

Partly Cloudy
Partly Cloudy
72.5 °F
Feels Like 77 °F
N
2.7
Wind Variable Wind from ENE

Today
High -- | Low -- °F
--% Chance of Precip.
Yesterday
High -- | Low -- °F
Precip. -- in
Pressure 30.19 in
Visibility 10.0 miles
Clouds Scattered Clouds 4700 ft
Heat Index 77 °F
Dew Point 51 °F
Humidity 47%
Rainfall 0.00 in
Snow Depth Not available.
6:57 AM 6:12 PM
Waxing Crescent, 44% visible
METAR KPMP 141853Z 08013KT 10SM SCT047 22/13 A3019 RMK AO2 SLP223 T02220128
Pressure 30.19 in
Visibility 10.0 miles
Clouds Scattered Clouds 4700 ft
Heat Index 77 °F
Dew Point 51 °F
Humidity 47%
Rainfall 0.00 in
Snow Depth Not available.
6:57 AM 6:12 PM
Waxing Crescent, 44% visible
METAR KPMP 141853Z 08013KT 10SM SCT047 22/13 A3019 RMK AO2 SLP223 T02220128

10-Day Weather Forecast

Almanac

Astronomy

Feb. 14, 2016 Rise Set
Actual Time
Civil Twilight
Nautical Twilight
Astronomical Twilight
Moon
Length of Visible Light
Length of Day
Tomorrow will be .
, % of the Moon is Illuminated

Today's Extremes

State Highs State Lows

Community

WunderPhotos

Upload Photos

1,892,879 photos uploaded!

WunderBlog® & News

Nearby

Air Quality

  Air Quality AQ Index Pollutant
Not available.

Snow Depth

Station Depth Elevation

Earthquake Activity

City Distance Mag. Time & Date
Minimum magnitude displayed is 2.5.

Coastal Water Temperatures

Place Temperature

Stations

Nearby Weather Stations

Station Location Temp. Windchill Dew Point Humidity Wind Precip. Elev Updated Type
                   

Watches & Warnings

There are currently no watches in effect.